sensor_id;sensor_type;location;lat;lon;timestamp;P1;durP1;ratioP1;P2;durP2;ratioP2
31764;SDS011;18338;53.240;8.798;2023-06-14T00:00:22;4.68;;;2.10;;
31764;SDS011;18338;53.240;8.798;2023-06-14T00:02:48;2.70;;;2.03;;
31764;SDS011;18338;53.240;8.798;2023-06-14T00:05:16;2.03;;;1.75;;
31764;SDS011;18338;53.240;8.798;2023-06-14T00:07:42;4.25;;;2.10;;
31764;SDS011;18338;53.240;8.798;2023-06-14T00:10:10;4.10;;;2.40;;
31764;SDS011;18338;53.240;8.798;2023-06-14T00:12:38;5.55;;;2.30;;
31764;SDS011;18338;53.240;8.798;2023-06-14T00:15:05;4.32;;;2.30;;
31764;SDS011;18338;53.240;8.798;2023-06-14T00:17:33;6.50;;;2.42;;
31764;SDS011;18338;53.240;8.798;2023-06-14T00:20:01;3.35;;;2.20;;
31764;SDS011;18338;53.240;8.798;2023-06-14T00:22:31;3.72;;;2.55;;
31764;SDS011;18338;53.240;8.798;2023-06-14T00:24:59;3.80;;;2.33;;
31764;SDS011;18338;53.240;8.798;2023-06-14T00:27:40;3.60;;;2.10;;
31764;SDS011;18338;53.240;8.798;2023-06-14T00:30:07;4.97;;;2.22;;
31764;SDS011;18338;53.240;8.798;2023-06-14T00:32:34;5.53;;;2.50;;
31764;SDS011;18338;53.240;8.798;2023-06-14T00:35:01;5.78;;;2.30;;
31764;SDS011;18338;53.240;8.798;2023-06-14T00:37:28;2.38;;;2.08;;
31764;SDS011;18338;53.240;8.798;2023-06-14T00:39:55;3.72;;;2.50;;
31764;SDS011;18338;53.240;8.798;2023-06-14T00:42:25;3.35;;;1.90;;
31764;SDS011;18338;53.240;8.798;2023-06-14T00:44:53;4.82;;;2.60;;
31764;SDS011;18338;53.240;8.798;2023-06-14T00:47:21;3.35;;;2.33;;
31764;SDS011;18338;53.240;8.798;2023-06-14T00:49:49;3.95;;;2.65;;
31764;SDS011;18338;53.240;8.798;2023-06-14T00:52:17;5.00;;;2.72;;
31764;SDS011;18338;53.240;8.798;2023-06-14T00:54:45;4.28;;;2.30;;
31764;SDS011;18338;53.240;8.798;2023-06-14T00:57:12;4.38;;;2.58;;
31764;SDS011;18338;53.240;8.798;2023-06-14T00:59:43;4.50;;;2.75;;
31764;SDS011;18338;53.240;8.798;2023-06-14T01:02:11;3.72;;;2.65;;
31764;SDS011;18338;53.240;8.798;2023-06-14T01:04:39;4.35;;;2.53;;
31764;SDS011;18338;53.240;8.798;2023-06-14T01:07:12;5.55;;;2.70;;
31764;SDS011;18338;53.240;8.798;2023-06-14T01:15:43;3.67;;;2.60;;
31764;SDS011;18338;53.240;8.798;2023-06-14T01:18:10;4.80;;;2.58;;
31764;SDS011;18338;53.240;8.798;2023-06-14T01:20:44;5.20;;;2.58;;
31764;SDS011;18338;53.240;8.798;2023-06-14T01:23:20;4.05;;;2.53;;
31764;SDS011;18338;53.240;8.798;2023-06-14T01:25:48;4.53;;;2.50;;
31764;SDS011;18338;53.240;8.798;2023-06-14T01:28:20;5.25;;;3.13;;
31764;SDS011;18338;53.240;8.798;2023-06-14T01:30:48;3.58;;;2.95;;
31764;SDS011;18338;53.240;8.798;2023-06-14T01:33:20;4.00;;;3.08;;
31764;SDS011;18338;53.240;8.798;2023-06-14T01:35:48;5.43;;;3.08;;
31764;SDS011;18338;53.240;8.798;2023-06-14T01:38:21;4.97;;;2.97;;
31764;SDS011;18338;53.240;8.798;2023-06-14T01:40:50;6.38;;;3.10;;
31764;SDS011;18338;53.240;8.798;2023-06-14T01:43:19;5.25;;;2.90;;
31764;SDS011;18338;53.240;8.798;2023-06-14T01:45:47;3.70;;;3.38;;
31764;SDS011;18338;53.240;8.798;2023-06-14T01:48:15;6.30;;;3.40;;
31764;SDS011;18338;53.240;8.798;2023-06-14T01:50:42;4.28;;;3.28;;
31764;SDS011;18338;53.240;8.798;2023-06-14T01:53:09;4.85;;;2.75;;
31764;SDS011;18338;53.240;8.798;2023-06-14T01:55:37;5.05;;;3.00;;
31764;SDS011;18338;53.240;8.798;2023-06-14T01:58:04;4.25;;;3.25;;
31764;SDS011;18338;53.240;8.798;2023-06-14T02:00:31;3.75;;;2.80;;
31764;SDS011;18338;53.240;8.798;2023-06-14T02:02:58;6.05;;;3.90;;
31764;SDS011;18338;53.240;8.798;2023-06-14T02:05:28;4.88;;;3.42;;
31764;SDS011;18338;53.240;8.798;2023-06-14T02:07:57;5.43;;;3.30;;
31764;SDS011;18338;53.240;8.798;2023-06-14T02:10:24;3.65;;;3.08;;
31764;SDS011;18338;53.240;8.798;2023-06-14T02:12:51;4.05;;;3.30;;
31764;SDS011;18338;53.240;8.798;2023-06-14T02:15:17;6.35;;;3.38;;
31764;SDS011;18338;53.240;8.798;2023-06-14T02:17:46;5.03;;;4.03;;
31764;SDS011;18338;53.240;8.798;2023-06-14T02:20:16;6.78;;;3.55;;
31764;SDS011;18338;53.240;8.798;2023-06-14T02:22:44;5.60;;;3.65;;
31764;SDS011;18338;53.240;8.798;2023-06-14T02:25:11;6.93;;;3.95;;
31764;SDS011;18338;53.240;8.798;2023-06-14T02:27:38;4.78;;;3.42;;
31764;SDS011;18338;53.240;8.798;2023-06-14T02:30:06;5.70;;;3.33;;
31764;SDS011;18338;53.240;8.798;2023-06-14T02:32:33;4.22;;;3.80;;
31764;SDS011;18338;53.240;8.798;2023-06-14T02:35:02;5.82;;;3.58;;
31764;SDS011;18338;53.240;8.798;2023-06-14T02:37:29;3.80;;;3.30;;
31764;SDS011;18338;53.240;8.798;2023-06-14T02:39:56;5.15;;;3.55;;
31764;SDS011;18338;53.240;8.798;2023-06-14T02:42:23;6.28;;;4.25;;
31764;SDS011;18338;53.240;8.798;2023-06-14T02:44:50;5.80;;;3.83;;
31764;SDS011;18338;53.240;8.798;2023-06-14T02:47:18;4.97;;;3.97;;
31764;SDS011;18338;53.240;8.798;2023-06-14T02:49:45;5.15;;;3.95;;
31764;SDS011;18338;53.240;8.798;2023-06-14T02:52:14;4.60;;;4.03;;
31764;SDS011;18338;53.240;8.798;2023-06-14T02:54:41;6.30;;;3.92;;
31764;SDS011;18338;53.240;8.798;2023-06-14T02:57:08;5.60;;;3.33;;
31764;SDS011;18338;53.240;8.798;2023-06-14T02:59:35;5.53;;;3.88;;
31764;SDS011;18338;53.240;8.798;2023-06-14T03:02:02;4.97;;;3.72;;
31764;SDS011;18338;53.240;8.798;2023-06-14T03:04:29;6.50;;;4.22;;
31764;SDS011;18338;53.240;8.798;2023-06-14T03:06:59;5.13;;;3.95;;
31764;SDS011;18338;53.240;8.798;2023-06-14T03:09:25;5.80;;;3.80;;
31764;SDS011;18338;53.240;8.798;2023-06-14T03:11:54;12.32;;;5.00;;
31764;SDS011;18338;53.240;8.798;2023-06-14T03:14:20;6.53;;;4.43;;
31764;SDS011;18338;53.240;8.798;2023-06-14T03:16:47;5.32;;;4.22;;
31764;SDS011;18338;53.240;8.798;2023-06-14T03:19:16;5.47;;;3.72;;
31764;SDS011;18338;53.240;8.798;2023-06-14T03:21:43;5.13;;;4.25;;
31764;SDS011;18338;53.240;8.798;2023-06-14T03:24:11;4.88;;;4.13;;
31764;SDS011;18338;53.240;8.798;2023-06-14T03:26:38;4.65;;;3.67;;
31764;SDS011;18338;53.240;8.798;2023-06-14T03:29:04;5.30;;;4.35;;
31764;SDS011;18338;53.240;8.798;2023-06-14T03:31:31;4.60;;;3.85;;
31764;SDS011;18338;53.240;8.798;2023-06-14T03:34:01;5.50;;;4.20;;
31764;SDS011;18338;53.240;8.798;2023-06-14T03:36:28;4.60;;;4.20;;
31764;SDS011;18338;53.240;8.798;2023-06-14T03:38:55;4.75;;;4.25;;
31764;SDS011;18338;53.240;8.798;2023-06-14T03:41:21;8.45;;;4.72;;
31764;SDS011;18338;53.240;8.798;2023-06-14T03:43:48;6.63;;;4.63;;
31764;SDS011;18338;53.240;8.798;2023-06-14T03:46:15;4.53;;;4.13;;
31764;SDS011;18338;53.240;8.798;2023-06-14T03:48:42;6.43;;;4.05;;
31764;SDS011;18338;53.240;8.798;2023-06-14T03:51:09;5.00;;;4.43;;
31764;SDS011;18338;53.240;8.798;2023-06-14T03:53:36;6.35;;;4.47;;
31764;SDS011;18338;53.240;8.798;2023-06-14T03:56:19;6.63;;;4.22;;
31764;SDS011;18338;53.240;8.798;2023-06-14T03:58:46;5.03;;;4.20;;
31764;SDS011;18338;53.240;8.798;2023-06-14T04:01:13;6.70;;;4.45;;
31764;SDS011;18338;53.240;8.798;2023-06-14T04:03:40;6.22;;;4.30;;
31764;SDS011;18338;53.240;8.798;2023-06-14T04:06:07;5.70;;;4.15;;
31764;SDS011;18338;53.240;8.798;2023-06-14T04:08:34;5.90;;;4.25;;
31764;SDS011;18338;53.240;8.798;2023-06-14T04:11:01;5.65;;;3.92;;
31764;SDS011;18338;53.240;8.798;2023-06-14T04:13:28;4.97;;;4.25;;
31764;SDS011;18338;53.240;8.798;2023-06-14T04:15:55;4.55;;;4.13;;
31764;SDS011;18338;53.240;8.798;2023-06-14T04:18:23;5.80;;;4.30;;
31764;SDS011;18338;53.240;8.798;2023-06-14T04:20:50;4.60;;;3.78;;
31764;SDS011;18338;53.240;8.798;2023-06-14T04:23:17;4.95;;;4.43;;
31764;SDS011;18338;53.240;8.798;2023-06-14T04:25:44;7.65;;;4.18;;
31764;SDS011;18338;53.240;8.798;2023-06-14T04:28:11;5.95;;;3.67;;
31764;SDS011;18338;53.240;8.798;2023-06-14T04:30:41;7.70;;;4.25;;
31764;SDS011;18338;53.240;8.798;2023-06-14T04:33:09;8.35;;;4.50;;
31764;SDS011;18338;53.240;8.798;2023-06-14T04:35:36;9.68;;;4.05;;
31764;SDS011;18338;53.240;8.798;2023-06-14T04:38:03;4.40;;;4.00;;
31764;SDS011;18338;53.240;8.798;2023-06-14T04:40:32;4.68;;;3.30;;
31764;SDS011;18338;53.240;8.798;2023-06-14T04:42:59;4.32;;;3.85;;
31764;SDS011;18338;53.240;8.798;2023-06-14T04:45:27;6.13;;;3.60;;
31764;SDS011;18338;53.240;8.798;2023-06-14T04:48:00;4.03;;;3.70;;
31764;SDS011;18338;53.240;8.798;2023-06-14T04:50:27;4.50;;;3.70;;
31764;SDS011;18338;53.240;8.798;2023-06-14T04:52:55;7.55;;;3.63;;
31764;SDS011;18338;53.240;8.798;2023-06-14T04:55:22;5.40;;;4.03;;
31764;SDS011;18338;53.240;8.798;2023-06-14T04:57:50;5.53;;;3.72;;
31764;SDS011;18338;53.240;8.798;2023-06-14T05:00:19;4.35;;;3.30;;
31764;SDS011;18338;53.240;8.798;2023-06-14T05:02:46;5.55;;;3.78;;
31764;SDS011;18338;53.240;8.798;2023-06-14T05:05:15;5.18;;;3.65;;
31764;SDS011;18338;53.240;8.798;2023-06-14T05:07:42;6.03;;;3.67;;
31764;SDS011;18338;53.240;8.798;2023-06-14T05:10:09;5.60;;;4.07;;
31764;SDS011;18338;53.240;8.798;2023-06-14T05:12:36;5.82;;;3.80;;
31764;SDS011;18338;53.240;8.798;2023-06-14T05:15:03;4.57;;;3.42;;
31764;SDS011;18338;53.240;8.798;2023-06-14T05:17:30;7.03;;;3.80;;
31764;SDS011;18338;53.240;8.798;2023-06-14T05:19:57;5.07;;;4.05;;
31764;SDS011;18338;53.240;8.798;2023-06-14T05:22:24;7.22;;;3.40;;
31764;SDS011;18338;53.240;8.798;2023-06-14T05:24:51;4.35;;;3.38;;
31764;SDS011;18338;53.240;8.798;2023-06-14T05:27:18;5.18;;;3.50;;
31764;SDS011;18338;53.240;8.798;2023-06-14T05:29:44;7.35;;;3.47;;
31764;SDS011;18338;53.240;8.798;2023-06-14T05:32:11;5.68;;;3.40;;
31764;SDS011;18338;53.240;8.798;2023-06-14T05:34:38;3.60;;;3.30;;
31764;SDS011;18338;53.240;8.798;2023-06-14T05:37:04;5.03;;;3.60;;
31764;SDS011;18338;53.240;8.798;2023-06-14T05:39:32;4.60;;;3.40;;
31764;SDS011;18338;53.240;8.798;2023-06-14T05:41:59;4.47;;;3.50;;
31764;SDS011;18338;53.240;8.798;2023-06-14T05:44:25;4.05;;;3.05;;
31764;SDS011;18338;53.240;8.798;2023-06-14T05:46:52;4.38;;;3.60;;
31764;SDS011;18338;53.240;8.798;2023-06-14T05:49:19;3.53;;;3.17;;
31764;SDS011;18338;53.240;8.798;2023-06-14T05:51:45;3.55;;;3.25;;
31764;SDS011;18338;53.240;8.798;2023-06-14T05:54:12;4.40;;;3.40;;
31764;SDS011;18338;53.240;8.798;2023-06-14T05:56:38;3.72;;;3.05;;
31764;SDS011;18338;53.240;8.798;2023-06-14T05:59:05;3.97;;;3.20;;
31764;SDS011;18338;53.240;8.798;2023-06-14T06:01:32;3.55;;;3.08;;
31764;SDS011;18338;53.240;8.798;2023-06-14T06:04:00;4.15;;;2.90;;
31764;SDS011;18338;53.240;8.798;2023-06-14T06:06:27;5.53;;;3.00;;
31764;SDS011;18338;53.240;8.798;2023-06-14T06:08:53;4.25;;;2.90;;
31764;SDS011;18338;53.240;8.798;2023-06-14T06:11:20;3.08;;;2.78;;
31764;SDS011;18338;53.240;8.798;2023-06-14T06:13:46;3.00;;;2.70;;
31764;SDS011;18338;53.240;8.798;2023-06-14T06:16:13;3.13;;;2.60;;
31764;SDS011;18338;53.240;8.798;2023-06-14T06:18:41;4.93;;;2.50;;
31764;SDS011;18338;53.240;8.798;2023-06-14T06:21:10;6.47;;;2.80;;
31764;SDS011;18338;53.240;8.798;2023-06-14T06:23:37;4.00;;;2.53;;
31764;SDS011;18338;53.240;8.798;2023-06-14T06:26:03;4.10;;;2.22;;
31764;SDS011;18338;53.240;8.798;2023-06-14T06:28:30;3.90;;;2.40;;
31764;SDS011;18338;53.240;8.798;2023-06-14T06:30:57;3.90;;;2.47;;
31764;SDS011;18338;53.240;8.798;2023-06-14T06:33:24;4.65;;;2.25;;
31764;SDS011;18338;53.240;8.798;2023-06-14T06:35:51;4.20;;;2.20;;
31764;SDS011;18338;53.240;8.798;2023-06-14T06:38:17;4.60;;;2.53;;
31764;SDS011;18338;53.240;8.798;2023-06-14T06:40:44;4.80;;;2.40;;
31764;SDS011;18338;53.240;8.798;2023-06-14T06:43:11;3.88;;;2.25;;
31764;SDS011;18338;53.240;8.798;2023-06-14T06:45:39;3.10;;;2.30;;
31764;SDS011;18338;53.240;8.798;2023-06-14T06:48:06;2.70;;;2.13;;
31764;SDS011;18338;53.240;8.798;2023-06-14T06:50:33;4.13;;;2.20;;
31764;SDS011;18338;53.240;8.798;2023-06-14T06:53:00;3.35;;;1.98;;
31764;SDS011;18338;53.240;8.798;2023-06-14T06:55:26;3.72;;;1.90;;
31764;SDS011;18338;53.240;8.798;2023-06-14T06:57:53;4.93;;;2.03;;
31764;SDS011;18338;53.240;8.798;2023-06-14T07:00:20;3.30;;;2.13;;
31764;SDS011;18338;53.240;8.798;2023-06-14T07:02:47;3.30;;;2.20;;
31764;SDS011;18338;53.240;8.798;2023-06-14T07:05:14;3.28;;;1.75;;
31764;SDS011;18338;53.240;8.798;2023-06-14T07:07:41;3.20;;;1.90;;
31764;SDS011;18338;53.240;8.798;2023-06-14T07:10:08;2.50;;;1.45;;
31764;SDS011;18338;53.240;8.798;2023-06-14T07:12:34;2.28;;;2.08;;
31764;SDS011;18338;53.240;8.798;2023-06-14T07:15:06;2.78;;;2.22;;
31764;SDS011;18338;53.240;8.798;2023-06-14T07:17:34;1.92;;;1.60;;
31764;SDS011;18338;53.240;8.798;2023-06-14T07:20:02;3.72;;;2.17;;
31764;SDS011;18338;53.240;8.798;2023-06-14T07:22:40;2.40;;;1.70;;
31764;SDS011;18338;53.240;8.798;2023-06-14T07:25:10;2.30;;;1.60;;
31764;SDS011;18338;53.240;8.798;2023-06-14T07:27:42;3.60;;;1.60;;
31764;SDS011;18338;53.240;8.798;2023-06-14T07:30:10;3.00;;;1.80;;
31764;SDS011;18338;53.240;8.798;2023-06-14T07:32:37;1.85;;;1.60;;
31764;SDS011;18338;53.240;8.798;2023-06-14T07:35:05;2.22;;;1.60;;
31764;SDS011;18338;53.240;8.798;2023-06-14T07:37:32;1.95;;;1.75;;
31764;SDS011;18338;53.240;8.798;2023-06-14T07:39:59;3.97;;;1.63;;
31764;SDS011;18338;53.240;8.798;2023-06-14T07:42:25;3.75;;;1.80;;
31764;SDS011;18338;53.240;8.798;2023-06-14T07:44:52;2.88;;;1.60;;
31764;SDS011;18338;53.240;8.798;2023-06-14T07:47:19;2.33;;;1.60;;
31764;SDS011;18338;53.240;8.798;2023-06-14T07:49:46;1.60;;;1.50;;
31764;SDS011;18338;53.240;8.798;2023-06-14T07:52:13;1.90;;;1.60;;
31764;SDS011;18338;53.240;8.798;2023-06-14T07:54:39;1.75;;;1.65;;
31764;SDS011;18338;53.240;8.798;2023-06-14T07:57:07;2.10;;;1.60;;
31764;SDS011;18338;53.240;8.798;2023-06-14T07:59:35;4.78;;;1.67;;
31764;SDS011;18338;53.240;8.798;2023-06-14T08:02:01;3.08;;;1.60;;
31764;SDS011;18338;53.240;8.798;2023-06-14T08:04:29;2.33;;;1.70;;
31764;SDS011;18338;53.240;8.798;2023-06-14T08:06:56;2.13;;;1.55;;
31764;SDS011;18338;53.240;8.798;2023-06-14T08:09:22;3.22;;;1.40;;
31764;SDS011;18338;53.240;8.798;2023-06-14T08:11:51;2.15;;;1.45;;
31764;SDS011;18338;53.240;8.798;2023-06-14T08:14:17;2.03;;;1.20;;
31764;SDS011;18338;53.240;8.798;2023-06-14T08:16:44;1.95;;;1.20;;
31764;SDS011;18338;53.240;8.798;2023-06-14T08:19:11;2.90;;;1.35;;
31764;SDS011;18338;53.240;8.798;2023-06-14T08:21:37;2.30;;;1.40;;
31764;SDS011;18338;53.240;8.798;2023-06-14T08:24:04;3.70;;;1.40;;
31764;SDS011;18338;53.240;8.798;2023-06-14T08:26:31;2.45;;;1.35;;
31764;SDS011;18338;53.240;8.798;2023-06-14T08:28:58;3.35;;;1.48;;
31764;SDS011;18338;53.240;8.798;2023-06-14T08:31:25;3.42;;;1.33;;
31764;SDS011;18338;53.240;8.798;2023-06-14T08:33:51;2.42;;;1.20;;
31764;SDS011;18338;53.240;8.798;2023-06-14T08:36:18;1.88;;;1.33;;
31764;SDS011;18338;53.240;8.798;2023-06-14T08:38:45;3.20;;;1.58;;
31764;SDS011;18338;53.240;8.798;2023-06-14T08:41:12;2.45;;;1.23;;
31764;SDS011;18338;53.240;8.798;2023-06-14T08:43:47;2.30;;;1.20;;
31764;SDS011;18338;53.240;8.798;2023-06-14T08:46:14;2.05;;;1.17;;
31764;SDS011;18338;53.240;8.798;2023-06-14T08:48:49;2.35;;;1.10;;
31764;SDS011;18338;53.240;8.798;2023-06-14T08:51:19;1.75;;;0.95;;
31764;SDS011;18338;53.240;8.798;2023-06-14T08:53:52;1.60;;;1.20;;
31764;SDS011;18338;53.240;8.798;2023-06-14T08:56:26;3.22;;;1.15;;
31764;SDS011;18338;53.240;8.798;2023-06-14T08:58:57;1.40;;;1.20;;
31764;SDS011;18338;53.240;8.798;2023-06-14T09:01:33;1.40;;;1.30;;
31764;SDS011;18338;53.240;8.798;2023-06-14T09:04:00;3.58;;;1.42;;
31764;SDS011;18338;53.240;8.798;2023-06-14T09:06:28;1.60;;;1.50;;
31764;SDS011;18338;53.240;8.798;2023-06-14T09:08:56;3.28;;;1.50;;
31764;SDS011;18338;53.240;8.798;2023-06-14T09:11:23;2.75;;;1.60;;
31764;SDS011;18338;53.240;8.798;2023-06-14T09:13:50;1.58;;;1.42;;
31764;SDS011;18338;53.240;8.798;2023-06-14T09:16:17;3.05;;;1.40;;
31764;SDS011;18338;53.240;8.798;2023-06-14T09:18:44;3.72;;;1.63;;
31764;SDS011;18338;53.240;8.798;2023-06-14T09:21:14;3.15;;;1.48;;
31764;SDS011;18338;53.240;8.798;2023-06-14T09:23:43;4.28;;;1.60;;
31764;SDS011;18338;53.240;8.798;2023-06-14T09:26:12;2.63;;;1.63;;
31764;SDS011;18338;53.240;8.798;2023-06-14T09:28:46;3.00;;;1.63;;
31764;SDS011;18338;53.240;8.798;2023-06-14T09:31:15;2.47;;;1.90;;
31764;SDS011;18338;53.240;8.798;2023-06-14T09:33:44;5.53;;;1.60;;
31764;SDS011;18338;53.240;8.798;2023-06-14T09:36:21;8.50;;;1.80;;
31764;SDS011;18338;53.240;8.798;2023-06-14T09:38:52;1.50;;;1.40;;
31764;SDS011;18338;53.240;8.798;2023-06-14T09:44:00;2.95;;;1.63;;
31764;SDS011;18338;53.240;8.798;2023-06-14T09:46:33;5.97;;;1.60;;
31764;SDS011;18338;53.240;8.798;2023-06-14T09:49:01;3.38;;;1.70;;
31764;SDS011;18338;53.240;8.798;2023-06-14T09:51:29;2.20;;;1.77;;
31764;SDS011;18338;53.240;8.798;2023-06-14T09:54:00;1.90;;;1.77;;
31764;SDS011;18338;53.240;8.798;2023-06-14T09:56:31;4.07;;;2.10;;
31764;SDS011;18338;53.240;8.798;2023-06-14T09:59:00;4.85;;;1.77;;
31764;SDS011;18338;53.240;8.798;2023-06-14T10:01:33;2.97;;;1.63;;
31764;SDS011;18338;53.240;8.798;2023-06-14T10:04:04;1.70;;;1.60;;
31764;SDS011;18338;53.240;8.798;2023-06-14T10:06:39;5.10;;;1.90;;
31764;SDS011;18338;53.240;8.798;2023-06-14T10:09:09;3.15;;;1.60;;
31764;SDS011;18338;53.240;8.798;2023-06-14T10:11:36;3.10;;;1.30;;
31764;SDS011;18338;53.240;8.798;2023-06-14T10:14:11;4.10;;;1.63;;
31764;SDS011;18338;53.240;8.798;2023-06-14T10:17:03;2.50;;;1.92;;
31764;SDS011;18338;53.240;8.798;2023-06-14T10:22:14;1.98;;;1.77;;
31764;SDS011;18338;53.240;8.798;2023-06-14T10:24:45;2.90;;;1.55;;
31764;SDS011;18338;53.240;8.798;2023-06-14T10:27:14;4.05;;;1.80;;
31764;SDS011;18338;53.240;8.798;2023-06-14T10:32:23;2.00;;;1.90;;
31764;SDS011;18338;53.240;8.798;2023-06-14T10:34:58;2.65;;;2.00;;
31764;SDS011;18338;53.240;8.798;2023-06-14T10:37:26;2.38;;;1.77;;
31764;SDS011;18338;53.240;8.798;2023-06-14T10:39:53;3.35;;;1.85;;
31764;SDS011;18338;53.240;8.798;2023-06-14T10:42:20;7.90;;;2.13;;
31764;SDS011;18338;53.240;8.798;2023-06-14T10:44:50;3.58;;;1.90;;
31764;SDS011;18338;53.240;8.798;2023-06-14T10:47:26;4.28;;;1.77;;
31764;SDS011;18338;53.240;8.798;2023-06-14T10:52:28;3.75;;;2.33;;
31764;SDS011;18338;53.240;8.798;2023-06-14T10:57:40;3.38;;;2.00;;
31764;SDS011;18338;53.240;8.798;2023-06-14T11:00:12;2.95;;;1.58;;
31764;SDS011;18338;53.240;8.798;2023-06-14T11:05:52;3.58;;;2.08;;
31764;SDS011;18338;53.240;8.798;2023-06-14T11:08:27;4.63;;;1.90;;
31764;SDS011;18338;53.240;8.798;2023-06-14T11:11:07;2.88;;;2.30;;
31764;SDS011;18338;53.240;8.798;2023-06-14T11:13:38;3.00;;;1.73;;
31764;SDS011;18338;53.240;8.798;2023-06-14T11:16:21;2.33;;;2.13;;
31764;SDS011;18338;53.240;8.798;2023-06-14T11:18:52;2.95;;;1.95;;
31764;SDS011;18338;53.240;8.798;2023-06-14T11:21:19;3.67;;;1.92;;
31764;SDS011;18338;53.240;8.798;2023-06-14T11:23:49;2.85;;;2.10;;
31764;SDS011;18338;53.240;8.798;2023-06-14T11:29:09;3.83;;;2.17;;
31764;SDS011;18338;53.240;8.798;2023-06-14T11:31:35;2.30;;;2.10;;
31764;SDS011;18338;53.240;8.798;2023-06-14T11:34:02;3.10;;;2.03;;
31764;SDS011;18338;53.240;8.798;2023-06-14T11:36:31;3.17;;;1.63;;
31764;SDS011;18338;53.240;8.798;2023-06-14T11:39:00;4.80;;;2.30;;
31764;SDS011;18338;53.240;8.798;2023-06-14T11:41:36;2.42;;;1.80;;
31764;SDS011;18338;53.240;8.798;2023-06-14T11:44:10;2.47;;;2.05;;
31764;SDS011;18338;53.240;8.798;2023-06-14T11:46:38;2.35;;;2.03;;
31764;SDS011;18338;53.240;8.798;2023-06-14T11:49:04;2.75;;;1.90;;
31764;SDS011;18338;53.240;8.798;2023-06-14T11:51:34;2.03;;;1.88;;
31764;SDS011;18338;53.240;8.798;2023-06-14T11:54:02;2.65;;;2.20;;
31764;SDS011;18338;53.240;8.798;2023-06-14T11:56:30;3.85;;;2.10;;
31764;SDS011;18338;53.240;8.798;2023-06-14T11:58:58;3.45;;;2.40;;
31764;SDS011;18338;53.240;8.798;2023-06-14T12:01:25;4.13;;;2.35;;
31764;SDS011;18338;53.240;8.798;2023-06-14T12:03:53;2.80;;;2.10;;
31764;SDS011;18338;53.240;8.798;2023-06-14T12:06:26;3.58;;;1.98;;
31764;SDS011;18338;53.240;8.798;2023-06-14T12:08:55;4.35;;;2.13;;
31764;SDS011;18338;53.240;8.798;2023-06-14T12:11:22;3.58;;;2.10;;
31764;SDS011;18338;53.240;8.798;2023-06-14T12:13:49;3.80;;;2.40;;
31764;SDS011;18338;53.240;8.798;2023-06-14T12:16:16;4.05;;;2.17;;
31764;SDS011;18338;53.240;8.798;2023-06-14T12:18:43;2.47;;;1.75;;
31764;SDS011;18338;53.240;8.798;2023-06-14T12:21:10;2.10;;;1.90;;
31764;SDS011;18338;53.240;8.798;2023-06-14T12:23:44;2.47;;;2.10;;
31764;SDS011;18338;53.240;8.798;2023-06-14T12:26:16;2.42;;;1.95;;
31764;SDS011;18338;53.240;8.798;2023-06-14T12:28:44;3.08;;;2.13;;
31764;SDS011;18338;53.240;8.798;2023-06-14T12:31:12;2.20;;;2.00;;
31764;SDS011;18338;53.240;8.798;2023-06-14T12:33:40;4.07;;;2.00;;
31764;SDS011;18338;53.240;8.798;2023-06-14T12:36:08;4.30;;;2.15;;
31764;SDS011;18338;53.240;8.798;2023-06-14T12:38:36;2.72;;;2.05;;
31764;SDS011;18338;53.240;8.798;2023-06-14T12:41:03;3.33;;;2.17;;
31764;SDS011;18338;53.240;8.798;2023-06-14T12:43:30;2.10;;;1.90;;
31764;SDS011;18338;53.240;8.798;2023-06-14T12:45:57;2.17;;;1.98;;
31764;SDS011;18338;53.240;8.798;2023-06-14T12:48:24;2.78;;;1.80;;
31764;SDS011;18338;53.240;8.798;2023-06-14T12:50:53;2.35;;;1.90;;
31764;SDS011;18338;53.240;8.798;2023-06-14T12:53:19;2.42;;;1.90;;
31764;SDS011;18338;53.240;8.798;2023-06-14T12:55:47;3.70;;;2.03;;
31764;SDS011;18338;53.240;8.798;2023-06-14T12:58:13;3.40;;;2.00;;
31764;SDS011;18338;53.240;8.798;2023-06-14T13:00:40;1.95;;;1.80;;
31764;SDS011;18338;53.240;8.798;2023-06-14T13:03:07;2.08;;;1.88;;
31764;SDS011;18338;53.240;8.798;2023-06-14T13:05:34;3.45;;;1.90;;
31764;SDS011;18338;53.240;8.798;2023-06-14T13:08:01;2.58;;;2.35;;
31764;SDS011;18338;53.240;8.798;2023-06-14T13:10:28;2.05;;;1.85;;
31764;SDS011;18338;53.240;8.798;2023-06-14T13:12:54;2.80;;;2.03;;
31764;SDS011;18338;53.240;8.798;2023-06-14T13:15:24;3.83;;;1.73;;
31764;SDS011;18338;53.240;8.798;2023-06-14T13:17:50;4.95;;;2.10;;
31764;SDS011;18338;53.240;8.798;2023-06-14T13:20:17;3.90;;;2.13;;
31764;SDS011;18338;53.240;8.798;2023-06-14T13:22:46;3.72;;;2.20;;
31764;SDS011;18338;53.240;8.798;2023-06-14T13:25:13;4.03;;;2.15;;
31764;SDS011;18338;53.240;8.798;2023-06-14T13:27:39;3.03;;;2.08;;
31764;SDS011;18338;53.240;8.798;2023-06-14T13:30:06;2.80;;;1.83;;
31764;SDS011;18338;53.240;8.798;2023-06-14T13:32:33;2.65;;;1.85;;
31764;SDS011;18338;53.240;8.798;2023-06-14T13:35:00;2.47;;;2.15;;
31764;SDS011;18338;53.240;8.798;2023-06-14T13:37:27;3.28;;;1.90;;
31764;SDS011;18338;53.240;8.798;2023-06-14T13:39:54;3.70;;;1.90;;
31764;SDS011;18338;53.240;8.798;2023-06-14T13:42:21;2.88;;;2.22;;
31764;SDS011;18338;53.240;8.798;2023-06-14T13:44:48;1.95;;;1.80;;
31764;SDS011;18338;53.240;8.798;2023-06-14T13:47:14;3.58;;;2.00;;
31764;SDS011;18338;53.240;8.798;2023-06-14T13:49:42;4.50;;;2.00;;
31764;SDS011;18338;53.240;8.798;2023-06-14T13:52:08;6.22;;;2.00;;
31764;SDS011;18338;53.240;8.798;2023-06-14T13:54:35;3.53;;;1.95;;
31764;SDS011;18338;53.240;8.798;2023-06-14T13:57:02;3.53;;;1.73;;
31764;SDS011;18338;53.240;8.798;2023-06-14T13:59:29;2.45;;;1.90;;
31764;SDS011;18338;53.240;8.798;2023-06-14T14:01:56;3.35;;;2.08;;
31764;SDS011;18338;53.240;8.798;2023-06-14T14:04:23;3.30;;;2.25;;
31764;SDS011;18338;53.240;8.798;2023-06-14T14:06:50;3.53;;;2.28;;
31764;SDS011;18338;53.240;8.798;2023-06-14T14:09:16;1.98;;;1.77;;
31764;SDS011;18338;53.240;8.798;2023-06-14T14:11:43;2.50;;;2.08;;
31764;SDS011;18338;53.240;8.798;2023-06-14T14:14:10;2.45;;;2.25;;
31764;SDS011;18338;53.240;8.798;2023-06-14T14:16:36;2.25;;;2.05;;
31764;SDS011;18338;53.240;8.798;2023-06-14T14:19:04;2.60;;;2.13;;
31764;SDS011;18338;53.240;8.798;2023-06-14T14:21:32;1.88;;;1.77;;
31764;SDS011;18338;53.240;8.798;2023-06-14T14:23:59;3.75;;;2.08;;
31764;SDS011;18338;53.240;8.798;2023-06-14T14:26:25;3.38;;;2.25;;
31764;SDS011;18338;53.240;8.798;2023-06-14T14:28:53;5.80;;;2.95;;
31764;SDS011;18338;53.240;8.798;2023-06-14T14:31:20;5.28;;;2.22;;
31764;SDS011;18338;53.240;8.798;2023-06-14T14:33:46;7.85;;;2.63;;
31764;SDS011;18338;53.240;8.798;2023-06-14T14:36:13;4.82;;;2.58;;
31764;SDS011;18338;53.240;8.798;2023-06-14T14:38:40;3.17;;;2.20;;
31764;SDS011;18338;53.240;8.798;2023-06-14T14:41:07;2.03;;;1.80;;
31764;SDS011;18338;53.240;8.798;2023-06-14T14:43:33;7.93;;;2.80;;
31764;SDS011;18338;53.240;8.798;2023-06-14T14:46:00;3.45;;;2.15;;
31764;SDS011;18338;53.240;8.798;2023-06-14T14:48:27;4.80;;;2.22;;
31764;SDS011;18338;53.240;8.798;2023-06-14T14:50:53;4.38;;;2.35;;
31764;SDS011;18338;53.240;8.798;2023-06-14T14:53:20;3.17;;;2.10;;
31764;SDS011;18338;53.240;8.798;2023-06-14T14:55:47;5.50;;;2.20;;
31764;SDS011;18338;53.240;8.798;2023-06-14T14:58:13;4.40;;;2.13;;
31764;SDS011;18338;53.240;8.798;2023-06-14T15:00:44;4.60;;;2.33;;
31764;SDS011;18338;53.240;8.798;2023-06-14T15:03:14;6.03;;;2.00;;
31764;SDS011;18338;53.240;8.798;2023-06-14T15:05:41;4.00;;;2.38;;
31764;SDS011;18338;53.240;8.798;2023-06-14T15:08:08;3.13;;;2.03;;
31764;SDS011;18338;53.240;8.798;2023-06-14T15:10:38;4.45;;;2.25;;
31764;SDS011;18338;53.240;8.798;2023-06-14T15:13:07;2.45;;;2.25;;
31764;SDS011;18338;53.240;8.798;2023-06-14T15:15:35;3.45;;;1.88;;
31764;SDS011;18338;53.240;8.798;2023-06-14T15:18:02;2.63;;;2.25;;